createdAt,value
2018-10-21T00:00:07.583Z,8.30
2018-10-21T00:02:35.833Z,8.20
2018-10-21T00:05:03.694Z,8.20
2018-10-21T00:07:31.512Z,8.30
2018-10-21T00:09:59.244Z,8.30
2018-10-21T00:12:26.955Z,8.20
2018-10-21T00:14:55.073Z,8.10
2018-10-21T00:17:22.732Z,8.20
2018-10-21T00:19:50.428Z,8.20
2018-10-21T00:22:18.231Z,8.20
2018-10-21T00:24:45.991Z,8.20
2018-10-21T00:27:14.006Z,8.30
2018-10-21T00:29:43.387Z,8.20
2018-10-21T00:32:11.094Z,8.10
2018-10-21T00:34:38.847Z,8.10
2018-10-21T00:37:07.154Z,8.20
2018-10-21T00:39:34.980Z,8.10
2018-10-21T00:42:02.783Z,8.10
2018-10-21T00:44:30.588Z,8.00
2018-10-21T00:46:58.289Z,8.10
2018-10-21T00:49:26.002Z,7.90
2018-10-21T00:51:53.754Z,8.00
2018-10-21T00:54:21.609Z,8.00
2018-10-21T00:56:50.757Z,7.90
2018-10-21T00:59:18.490Z,7.80
2018-10-21T01:01:46.241Z,7.90
2018-10-21T01:04:14.100Z,7.80
2018-10-21T01:06:41.766Z,7.80
2018-10-21T01:09:12.182Z,7.80
2018-10-21T01:11:40.879Z,7.70
2018-10-21T01:14:08.953Z,7.90
2018-10-21T01:16:37.325Z,8.00
2018-10-21T01:19:05.454Z,8.00
2018-10-21T01:21:33.186Z,8.20
2018-10-21T01:24:00.920Z,8.20
2018-10-21T01:26:28.815Z,8.10
2018-10-21T01:29:02.184Z,8.10
2018-10-21T01:31:31.047Z,8.10
2018-10-21T01:33:59.050Z,8.00
2018-10-21T01:36:27.238Z,7.90
2018-10-21T01:38:55.341Z,7.90
2018-10-21T01:41:28.259Z,7.90
2018-10-21T01:43:56.650Z,7.90
2018-10-21T01:46:24.412Z,7.80
2018-10-21T01:48:53.218Z,7.80
2018-10-21T01:51:21.006Z,7.80
2018-10-21T01:53:48.690Z,7.80
2018-10-21T01:56:16.505Z,7.70
2018-10-21T01:58:44.160Z,7.80
2018-10-21T02:01:12.377Z,7.70
2018-10-21T02:03:40.059Z,7.60
2018-10-21T02:06:08.327Z,7.60
2018-10-21T02:08:36.122Z,7.60
2018-10-21T02:11:04.106Z,7.50
2018-10-21T02:13:31.742Z,7.40
2018-10-21T02:15:59.510Z,7.50
2018-10-21T02:18:27.278Z,7.50
2018-10-21T02:20:55.730Z,7.50
2018-10-21T02:23:25.363Z,7.50
2018-10-21T02:25:53.595Z,7.30
2018-10-21T02:28:22.147Z,7.20
2018-10-21T02:30:50.566Z,7.20
2018-10-21T02:33:18.592Z,7.30
2018-10-21T02:35:46.228Z,7.20
2018-10-21T02:38:13.887Z,7.30
2018-10-21T02:41:17.433Z,7.20
2018-10-21T02:43:45.255Z,7.20
2018-10-21T02:46:12.994Z,7.20
2018-10-21T02:48:42.806Z,7.30
2018-10-21T02:51:11.127Z,7.20
2018-10-21T02:53:40.393Z,7.10
2018-10-21T02:56:10.842Z,7.20
2018-10-21T02:58:40.024Z,7.10
2018-10-21T03:01:08.314Z,7.20
2018-10-21T03:03:36.172Z,7.20
2018-10-21T03:06:04.168Z,7.00
2018-10-21T03:08:32.508Z,7.00
2018-10-21T03:11:00.607Z,6.90
2018-10-21T03:13:32.233Z,6.80
2018-10-21T03:16:00.031Z,6.90
2018-10-21T03:18:27.944Z,6.90
2018-10-21T03:20:56.477Z,6.90
2018-10-21T03:23:25.202Z,7.00
2018-10-21T03:25:53.095Z,7.00
2018-10-21T03:28:22.097Z,7.00
2018-10-21T03:30:51.197Z,6.90
2018-10-21T03:33:19.216Z,6.90
2018-10-21T03:35:54.630Z,6.90
2018-10-21T03:38:22.924Z,7.00
2018-10-21T03:40:50.602Z,6.80
2018-10-21T03:43:18.386Z,6.90
2018-10-21T03:45:50.666Z,6.90
2018-10-21T03:48:18.487Z,6.80
2018-10-21T03:50:47.663Z,6.70
2018-10-21T03:53:15.586Z,6.70
2018-10-21T03:55:45.110Z,6.60
2018-10-21T03:58:17.181Z,6.70
2018-10-21T04:00:50.875Z,6.70
2018-10-21T04:03:18.685Z,6.60
2018-10-21T04:05:50.654Z,6.50
2018-10-21T04:08:18.353Z,6.50
2018-10-21T04:10:47.736Z,6.40
2018-10-21T04:13:15.406Z,6.50
2018-10-21T04:15:43.081Z,6.50
2018-10-21T04:18:10.966Z,6.50
2018-10-21T04:20:38.810Z,6.40
2018-10-21T04:23:06.459Z,6.40
2018-10-21T04:25:39.579Z,6.30
2018-10-21T04:28:10.436Z,6.30
2018-10-21T04:30:39.705Z,6.20
2018-10-21T04:33:17.963Z,6.30
2018-10-21T04:35:52.009Z,6.30
2018-10-21T04:40:48.871Z,6.20
2018-10-21T04:43:16.922Z,6.30
2018-10-21T04:45:45.604Z,6.20
2018-10-21T04:48:14.029Z,6.10
2018-10-21T04:50:41.789Z,6.20
2018-10-21T04:53:14.237Z,6.20
2018-10-21T04:55:42.809Z,6.20
2018-10-21T04:58:10.518Z,6.20
2018-10-21T05:00:38.290Z,6.10
2018-10-21T05:03:05.922Z,6.20
2018-10-21T05:05:33.559Z,6.10
2018-10-21T05:08:01.326Z,6.00
2018-10-21T05:10:33.753Z,6.10
2018-10-21T05:13:07.886Z,6.10
2018-10-21T05:15:36.796Z,6.00
2018-10-21T05:18:04.671Z,6.00
2018-10-21T05:20:33.255Z,6.00
2018-10-21T05:23:00.915Z,6.00
2018-10-21T05:25:28.686Z,6.00
2018-10-21T05:27:56.324Z,6.00
2018-10-21T05:30:24.001Z,6.00
2018-10-21T05:32:52.374Z,5.90
2018-10-21T05:35:20.436Z,5.90
2018-10-21T05:37:48.883Z,5.90
2018-10-21T05:40:18.663Z,5.90
2018-10-21T05:42:47.870Z,5.80
2018-10-21T05:45:15.625Z,5.80
2018-10-21T05:47:43.592Z,5.90
2018-10-21T05:50:13.269Z,5.90
2018-10-21T05:52:41.289Z,5.80
2018-10-21T05:55:10.462Z,5.80
2018-10-21T05:57:38.867Z,5.80
2018-10-21T06:00:09.612Z,5.80
2018-10-21T06:02:37.980Z,5.80
2018-10-21T06:05:15.665Z,5.80
2018-10-21T06:07:47.633Z,5.80
2018-10-21T06:10:15.751Z,5.80
2018-10-21T06:12:43.942Z,5.70
2018-10-21T06:15:16.588Z,5.70
2018-10-21T06:17:48.828Z,5.70
2018-10-21T06:20:27.204Z,5.70
2018-10-21T06:22:55.369Z,5.70
2018-10-21T06:25:27.598Z,5.70
2018-10-21T06:27:55.263Z,5.70
2018-10-21T06:30:23.947Z,5.80
2018-10-21T06:32:51.727Z,5.80
2018-10-21T06:35:19.565Z,5.80
2018-10-21T06:47:27.436Z,5.90
2018-10-21T06:49:55.084Z,6.20
2018-10-21T06:52:23.519Z,6.30
2018-10-21T06:54:53.000Z,6.30
2018-10-21T06:57:20.985Z,6.20
2018-10-21T06:59:49.388Z,6.30
2018-10-21T07:02:17.206Z,6.40
2018-10-21T07:04:44.936Z,6.40
2018-10-21T07:07:13.247Z,6.40
2018-10-21T07:09:41.015Z,6.40
2018-10-21T07:12:08.852Z,6.50
2018-10-21T07:14:37.150Z,6.50
2018-10-21T07:17:05.115Z,6.50
2018-10-21T07:19:32.929Z,6.50
2018-10-21T07:22:00.606Z,6.60
2018-10-21T07:24:29.093Z,6.70
2018-10-21T07:26:56.942Z,6.90
2018-10-21T07:29:25.994Z,7.00
2018-10-21T07:31:58.391Z,7.10
2018-10-21T07:34:26.379Z,7.40
2018-10-21T07:36:55.112Z,7.60
2018-10-21T07:39:23.966Z,7.80
2018-10-21T07:41:51.761Z,8.00
2018-10-21T07:44:19.571Z,8.20
2018-10-21T07:46:47.307Z,8.30
2018-10-21T07:49:15.296Z,8.50
2018-10-21T07:51:42.923Z,8.60
2018-10-21T07:54:11.713Z,8.70
2018-10-21T07:56:39.559Z,8.70
2018-10-21T07:59:07.855Z,8.70
2018-10-21T08:01:36.750Z,8.80
2018-10-21T08:04:05.236Z,8.90
2018-10-21T08:06:44.132Z,8.90
2018-10-21T08:09:12.408Z,8.90
2018-10-21T08:11:40.177Z,9.10
2018-10-21T08:14:08.035Z,9.30
2018-10-21T08:16:39.774Z,9.60
2018-10-21T08:19:07.531Z,9.80
2018-10-21T08:21:36.721Z,9.90
2018-10-21T08:24:05.050Z,9.90
2018-10-21T08:26:33.817Z,10.00
2018-10-21T08:29:01.556Z,10.10
2018-10-21T08:31:29.367Z,10.20
2018-10-21T08:33:58.030Z,10.20
2018-10-21T08:36:25.762Z,10.30
2018-10-21T08:38:55.294Z,10.40
2018-10-21T08:41:23.568Z,10.60
2018-10-21T08:43:51.282Z,10.70
2018-10-21T08:46:19.111Z,10.70
2018-10-21T08:48:46.966Z,10.70
2018-10-21T08:51:19.186Z,10.80
2018-10-21T08:53:47.010Z,11.00
2018-10-21T08:56:14.897Z,11.20
2018-10-21T08:58:42.812Z,11.30
2018-10-21T09:01:10.735Z,11.30
2018-10-21T09:03:39.740Z,11.40
2018-10-21T09:06:07.679Z,11.50
2018-10-21T09:08:36.556Z,11.60
2018-10-21T09:20:44.310Z,11.70
2018-10-21T09:23:12.809Z,11.80
2018-10-21T09:25:40.571Z,12.00
2018-10-21T09:28:08.533Z,12.20
2018-10-21T09:30:36.669Z,12.20
2018-10-21T09:33:08.722Z,12.30
2018-10-21T09:35:41.429Z,12.60
2018-10-21T09:38:09.223Z,12.60
2018-10-21T09:40:37.051Z,12.70
2018-10-21T09:43:05.004Z,12.80
2018-10-21T09:45:32.569Z,12.90
2018-10-21T09:48:00.222Z,13.30
2018-10-21T09:50:27.869Z,13.70
2018-10-21T09:52:55.554Z,14.10
2018-10-21T09:55:24.455Z,14.60
2018-10-21T09:57:52.211Z,14.90
2018-10-21T10:00:25.541Z,15.10
2018-10-21T10:02:58.807Z,15.20
2018-10-21T10:05:27.135Z,15.20
2018-10-21T10:07:55.354Z,15.20
2018-10-21T10:10:24.293Z,15.30
2018-10-21T10:12:52.855Z,15.30
2018-10-21T10:15:20.722Z,15.30
2018-10-21T10:17:49.224Z,15.30
2018-10-21T10:20:17.036Z,15.50
2018-10-21T10:22:44.856Z,15.50
2018-10-21T10:25:12.775Z,15.60
2018-10-21T10:27:40.627Z,15.60
2018-10-21T10:30:09.683Z,15.60
2018-10-21T10:32:37.576Z,15.30
2018-10-21T10:35:06.076Z,15.60
2018-10-21T10:37:34.813Z,15.70
2018-10-21T10:40:02.837Z,15.70
2018-10-21T10:42:30.751Z,15.90
2018-10-21T10:44:58.654Z,16.10
2018-10-21T10:47:26.407Z,16.10
2018-10-21T10:49:54.325Z,16.00
2018-10-21T10:52:23.128Z,16.20
2018-10-21T10:54:58.325Z,16.50
2018-10-21T10:57:26.197Z,16.60
2018-10-21T10:59:53.962Z,16.50
2018-10-21T11:02:21.694Z,16.60
2018-10-21T11:04:49.436Z,16.80
2018-10-21T11:07:17.323Z,16.60
2018-10-21T11:09:44.945Z,16.60
2018-10-21T11:12:12.617Z,16.70
2018-10-21T11:14:40.389Z,16.90
2018-10-21T11:17:08.542Z,16.90
2018-10-21T11:19:36.287Z,16.60
2018-10-21T11:22:04.218Z,16.50
2018-10-21T11:24:31.838Z,16.50
2018-10-21T11:27:00.110Z,16.40
2018-10-21T11:29:28.744Z,16.50
2018-10-21T11:31:56.481Z,16.50
2018-10-21T11:34:24.154Z,16.50
2018-10-21T11:36:51.909Z,16.60
2018-10-21T11:39:19.744Z,16.70
2018-10-21T11:41:47.972Z,16.90
2018-10-21T11:44:16.373Z,17.10
2018-10-21T11:46:44.628Z,17.30
2018-10-21T11:49:12.920Z,17.40
2018-10-21T11:51:41.063Z,17.10
2018-10-21T11:54:08.748Z,17.00
2018-10-21T11:56:40.230Z,17.20
2018-10-21T11:59:08.755Z,17.50
2018-10-21T12:01:36.518Z,17.80
2018-10-21T12:04:04.624Z,17.80
2018-10-21T12:06:32.317Z,17.60
2018-10-21T12:09:00.005Z,17.40
2018-10-21T12:11:27.852Z,17.70
2018-10-21T12:13:55.508Z,17.70
2018-10-21T12:16:24.492Z,17.90
2018-10-21T12:18:52.080Z,18.20
2018-10-21T12:21:19.728Z,18.40
2018-10-21T12:23:47.480Z,18.60
2018-10-21T12:26:15.176Z,18.70
2018-10-21T12:28:44.057Z,18.90
2018-10-21T12:31:16.211Z,18.80
2018-10-21T12:33:44.305Z,18.40
2018-10-21T12:36:13.483Z,18.30
2018-10-21T12:38:41.465Z,18.00
2018-10-21T12:41:09.539Z,17.90
2018-10-21T12:43:37.364Z,18.10
2018-10-21T12:46:05.327Z,17.90
2018-10-21T12:48:34.482Z,18.10
2018-10-21T12:51:02.429Z,18.20
2018-10-21T12:53:30.788Z,17.70
2018-10-21T12:55:58.762Z,17.80
2018-10-21T12:58:26.600Z,18.20
2018-10-21T13:00:54.418Z,18.10
2018-10-21T13:03:22.019Z,17.90
2018-10-21T13:05:50.754Z,17.80
2018-10-21T13:08:18.636Z,17.60
2018-10-21T13:10:47.076Z,17.60
2018-10-21T13:13:14.896Z,17.90
2018-10-21T13:15:42.617Z,18.40
2018-10-21T13:18:10.267Z,18.50
2018-10-21T13:20:37.897Z,18.80
2018-10-21T13:23:05.523Z,18.90
2018-10-21T13:25:33.164Z,19.00
2018-10-21T13:28:00.823Z,18.40
2018-10-21T13:30:28.497Z,18.00
2018-10-21T13:32:57.203Z,18.00
2018-10-21T13:35:24.898Z,18.30
2018-10-21T13:37:52.922Z,18.60
2018-10-21T13:40:20.857Z,18.50
2018-10-21T13:42:48.761Z,18.30
2018-10-21T13:45:16.584Z,18.00
2018-10-21T13:47:44.228Z,17.80
2018-10-21T13:50:11.893Z,17.80
2018-10-21T13:52:39.714Z,18.20
2018-10-21T13:55:08.197Z,18.50
2018-10-21T13:57:38.717Z,18.50
2018-10-21T14:00:07.267Z,18.50
2018-10-21T14:02:35.662Z,18.50
2018-10-21T14:05:03.466Z,18.50
2018-10-21T14:07:31.113Z,18.50
2018-10-21T14:09:58.897Z,18.40
2018-10-21T14:12:26.493Z,18.10
2018-10-21T14:14:54.258Z,18.10
2018-10-21T14:17:21.933Z,18.00
2018-10-21T14:19:49.621Z,18.20
2018-10-21T14:22:17.365Z,18.50
2018-10-21T14:24:45.050Z,18.50
2018-10-21T14:27:12.723Z,18.30
2018-10-21T14:29:40.999Z,18.00
2018-10-21T14:32:08.679Z,17.90
2018-10-21T14:34:36.287Z,18.00
2018-10-21T14:37:03.962Z,18.00
2018-10-21T14:39:31.550Z,17.90
2018-10-21T14:41:59.308Z,17.80
2018-10-21T14:44:26.871Z,17.90
2018-10-21T14:46:55.221Z,17.90
2018-10-21T14:49:22.843Z,17.90
2018-10-21T14:51:50.470Z,18.00
2018-10-21T14:54:18.246Z,17.90
2018-10-21T14:56:45.822Z,17.50
2018-10-21T14:59:13.506Z,17.40
2018-10-21T15:01:41.211Z,17.40
2018-10-21T15:04:09.654Z,17.60
2018-10-21T15:06:37.314Z,17.40
2018-10-21T15:09:08.771Z,17.50
2018-10-21T15:11:36.494Z,17.30
2018-10-21T15:14:04.527Z,17.30
2018-10-21T15:16:32.318Z,17.40
2018-10-21T15:19:00.095Z,17.40
2018-10-21T15:21:28.155Z,17.50
2018-10-21T15:23:55.890Z,17.50
2018-10-21T15:26:25.318Z,17.50
2018-10-21T15:28:54.265Z,17.40
2018-10-21T15:31:22.412Z,17.30
2018-10-21T15:33:50.458Z,17.30
2018-10-21T15:36:18.119Z,17.10
2018-10-21T15:38:45.774Z,16.90
2018-10-21T15:41:13.542Z,16.90
2018-10-21T15:43:41.379Z,16.80
2018-10-21T15:46:09.402Z,16.60
2018-10-21T15:48:37.079Z,16.50
2018-10-21T15:51:05.127Z,16.50
2018-10-21T15:53:32.818Z,16.40
2018-10-21T15:56:04.828Z,16.50
2018-10-21T15:58:32.570Z,16.50
2018-10-21T16:01:00.244Z,16.40
2018-10-21T16:03:27.862Z,16.30
2018-10-21T16:05:55.985Z,16.30
2018-10-21T16:08:23.699Z,16.30
2018-10-21T16:10:51.402Z,16.20
2018-10-21T16:13:19.093Z,16.20
2018-10-21T16:15:47.020Z,16.10
2018-10-21T16:18:14.549Z,16.00
2018-10-21T16:20:42.471Z,16.00
2018-10-21T16:23:10.181Z,15.90
2018-10-21T16:25:38.113Z,15.80
2018-10-21T16:28:05.683Z,15.70
2018-10-21T16:30:33.353Z,15.60
2018-10-21T16:33:01.158Z,15.50
2018-10-21T16:35:28.882Z,15.40
2018-10-21T16:37:56.798Z,15.20
2018-10-21T16:40:24.505Z,15.00
2018-10-21T16:42:52.214Z,14.80
2018-10-21T16:45:20.264Z,14.50
2018-10-21T16:47:47.991Z,14.40
2018-10-21T16:50:16.398Z,14.30
2018-10-21T16:52:46.124Z,14.10
2018-10-21T16:55:14.561Z,14.00
2018-10-21T16:57:42.579Z,13.80
2018-10-21T17:00:12.972Z,13.60
2018-10-21T17:02:41.513Z,13.50
2018-10-21T17:05:10.211Z,13.30
2018-10-21T17:07:37.888Z,13.20
2018-10-21T17:10:06.630Z,13.10
2018-10-21T17:12:34.534Z,13.00
2018-10-21T17:15:02.340Z,13.00
2018-10-21T17:17:30.080Z,12.90
2018-10-21T17:19:57.910Z,12.80
2018-10-21T17:22:25.715Z,12.70
2018-10-21T17:24:53.969Z,12.60
2018-10-21T17:27:22.328Z,12.60
2018-10-21T17:29:50.702Z,12.50
2018-10-21T17:32:18.574Z,12.50
2018-10-21T17:34:46.319Z,12.40
2018-10-21T17:37:14.169Z,12.40
2018-10-21T17:39:41.827Z,12.60
2018-10-21T17:42:11.141Z,12.60
2018-10-21T17:44:38.916Z,12.50
2018-10-21T17:47:06.560Z,12.50
2018-10-21T17:49:35.166Z,12.40
2018-10-21T17:52:03.065Z,12.40
2018-10-21T17:54:31.418Z,12.60
2018-10-21T17:57:00.254Z,12.90
2018-10-21T17:59:28.542Z,12.90
2018-10-21T18:01:57.151Z,12.90
2018-10-21T18:04:25.405Z,12.90
2018-10-21T18:06:53.374Z,12.90
2018-10-21T18:09:21.851Z,12.80
2018-10-21T18:11:49.942Z,12.80
2018-10-21T18:14:18.295Z,12.60
2018-10-21T18:16:46.470Z,12.50
2018-10-21T18:19:14.538Z,12.50
2018-10-21T18:21:42.372Z,12.50
2018-10-21T18:24:10.383Z,12.50
2018-10-21T18:26:38.579Z,12.40
2018-10-21T18:29:06.708Z,12.30
2018-10-21T18:31:34.525Z,12.50
2018-10-21T18:34:02.606Z,12.70
2018-10-21T18:36:31.147Z,12.80
2018-10-21T18:38:59.099Z,12.90
2018-10-21T18:41:27.010Z,13.10
2018-10-21T18:43:55.060Z,13.30
2018-10-21T18:46:24.472Z,13.30
2018-10-21T18:48:52.310Z,13.40
2018-10-21T18:51:20.176Z,13.50
2018-10-21T18:53:48.346Z,13.50
2018-10-21T18:56:16.121Z,13.50
2018-10-21T18:58:44.029Z,13.60
2018-10-21T19:01:12.511Z,13.60
2018-10-21T19:03:40.898Z,13.60
2018-10-21T19:06:09.019Z,13.60
2018-10-21T19:08:42.033Z,13.50
2018-10-21T19:11:09.778Z,13.60
2018-10-21T19:13:37.555Z,13.60
2018-10-21T19:16:05.354Z,13.60
2018-10-21T19:18:34.917Z,13.50
2018-10-21T19:21:02.846Z,13.50
2018-10-21T19:23:31.868Z,13.50
2018-10-21T19:25:59.862Z,13.50
2018-10-21T19:28:28.606Z,13.50
2018-10-21T19:30:56.899Z,13.50
2018-10-21T19:33:25.143Z,13.40
2018-10-21T19:35:52.927Z,13.50
2018-10-21T19:38:20.860Z,13.50
2018-10-21T19:40:48.676Z,13.50
2018-10-21T19:43:17.254Z,13.50
2018-10-21T19:45:45.703Z,13.50
2018-10-21T19:48:13.569Z,13.50
2018-10-21T19:50:41.759Z,13.50
2018-10-21T19:53:11.947Z,13.50
2018-10-21T19:55:39.759Z,13.50
2018-10-21T19:58:07.535Z,13.50
2018-10-21T20:00:35.332Z,13.40
2018-10-21T20:03:03.255Z,13.40
2018-10-21T20:05:31.679Z,13.30
2018-10-21T20:07:59.829Z,13.40
2018-10-21T20:10:27.793Z,13.50
2018-10-21T20:12:55.456Z,13.40
2018-10-21T20:15:28.354Z,13.40
2018-10-21T20:17:56.048Z,13.40
2018-10-21T20:20:23.956Z,13.40
2018-10-21T20:22:52.498Z,13.30
2018-10-21T20:25:20.486Z,13.30
2018-10-21T20:27:48.454Z,13.30
2018-10-21T20:30:16.619Z,13.30
2018-10-21T20:32:44.915Z,13.30
2018-10-21T20:35:12.867Z,13.40
2018-10-21T20:37:41.326Z,13.30
2018-10-21T20:40:10.351Z,13.30
2018-10-21T20:42:38.108Z,13.20
2018-10-21T20:45:07.073Z,13.20
2018-10-21T20:47:34.940Z,13.20
2018-10-21T20:50:07.328Z,13.10
2018-10-21T20:52:35.167Z,13.10
2018-10-21T20:55:03.918Z,13.10
2018-10-21T20:57:31.781Z,13.00
2018-10-21T20:59:59.624Z,13.10
2018-10-21T21:02:31.716Z,13.10
2018-10-21T21:04:59.602Z,13.10
2018-10-21T21:07:28.323Z,13.00
2018-10-21T21:09:58.812Z,13.10
2018-10-21T21:12:26.819Z,13.10
2018-10-21T21:14:55.284Z,13.00
2018-10-21T21:17:23.922Z,13.00
2018-10-21T21:19:55.542Z,13.00
2018-10-21T21:22:24.017Z,13.00
2018-10-21T21:24:51.683Z,12.90
2018-10-21T21:27:20.382Z,13.00
2018-10-21T21:39:28.690Z,12.90
2018-10-21T21:41:56.615Z,12.80
2018-10-21T21:44:25.181Z,12.80
2018-10-21T21:46:54.998Z,12.70
2018-10-21T21:49:22.689Z,12.70
2018-10-21T21:51:51.378Z,12.70
2018-10-21T21:54:31.261Z,12.70
2018-10-21T21:57:03.734Z,12.70
2018-10-21T21:59:31.374Z,12.70
2018-10-21T22:01:59.140Z,12.60
2018-10-21T22:04:27.120Z,12.60
2018-10-21T22:06:55.487Z,12.60
2018-10-21T22:09:25.075Z,12.60
2018-10-21T22:11:52.952Z,12.60
2018-10-21T22:14:20.706Z,12.60
2018-10-21T22:16:48.512Z,12.50
2018-10-21T22:19:16.540Z,12.50
2018-10-21T22:21:45.062Z,12.50
2018-10-21T22:24:13.075Z,12.60
2018-10-21T22:26:40.691Z,12.60
2018-10-21T22:29:08.566Z,12.70
2018-10-21T22:31:37.030Z,12.60
2018-10-21T22:34:05.153Z,12.60
2018-10-21T22:36:32.804Z,12.70
2018-10-21T22:39:00.575Z,12.70
2018-10-21T22:41:29.247Z,12.70
2018-10-21T22:43:57.068Z,12.80
2018-10-21T22:46:25.589Z,12.70
2018-10-21T22:48:53.552Z,12.70
2018-10-21T22:51:21.225Z,12.60
2018-10-21T22:53:48.867Z,12.50
2018-10-21T22:56:17.952Z,12.50
2018-10-21T22:58:45.533Z,12.70
2018-10-21T23:01:13.450Z,12.60
2018-10-21T23:03:41.161Z,12.60
2018-10-21T23:06:08.973Z,12.60
2018-10-21T23:08:36.581Z,12.60
2018-10-21T23:11:05.071Z,12.60
2018-10-21T23:13:32.688Z,12.50
2018-10-21T23:16:00.409Z,12.50
2018-10-21T23:18:28.147Z,12.40
2018-10-21T23:20:55.770Z,12.50
2018-10-21T23:23:23.509Z,12.40
2018-10-21T23:25:51.325Z,12.40
2018-10-21T23:28:19.140Z,12.40
2018-10-21T23:30:46.749Z,12.40
2018-10-21T23:33:14.403Z,12.40
2018-10-21T23:35:42.049Z,12.50
2018-10-21T23:38:09.880Z,12.50
2018-10-21T23:40:37.801Z,12.40
2018-10-21T23:43:05.453Z,12.40
2018-10-21T23:45:33.629Z,12.40
2018-10-21T23:48:01.281Z,12.40
2018-10-21T23:50:28.893Z,12.40
2018-10-21T23:52:56.599Z,12.40
2018-10-21T23:55:24.937Z,12.50
2018-10-21T23:57:52.678Z,12.40
